Xakanaxa Airport

METAR FBMN TAF FBMN
30 °C
°C
/
°C
1h
Age
16:07:32
LT
14:07
UTC
0 ft

1,000

2,000

3,000

4,000

5,000

VFR
<?= Yii::t('app', 'Wind direction') ?> <?= Yii::t('app', 'of'); ?>
310°
18:02
Sunset
11%
Humidity
Wind shear
Closed/Snow
RWY visual range
RWY condition
Vert. visibility
Min. visibility
CAVOK
Trend
Correction
Special report
1020 hPa
QNH
METAR FBMN 131300Z 31004KT 250V040 CAVOK 30/M04 Q1020
Clear
3 kt
3 kt
16:00
VFR
6 kt
17:00
VFR
6 kt
18:00
VFR
6 kt
19:00
VFR
6 kt
20:00
VFR
6 kt
21:00
VFR
6 kt
22:00
VFR
6 kt
10 km+
Visibility
None
Ceiling
4 kt
Wind
metar-taf.com/BW-0032

Metar-Taf.com

Visual decoder